createdAt,value
2022-09-28T00:01:29.929Z,100088.19
2022-09-28T00:03:59.951Z,100089.78
2022-09-28T00:06:30.436Z,100081.06
2022-09-28T00:08:59.425Z,100083.09
2022-09-28T00:11:29.708Z,100087.47
2022-09-28T00:14:00.428Z,100084.31
2022-09-28T00:16:31.860Z,100086.63
2022-09-28T00:19:00.887Z,100076.09
2022-09-28T00:21:31.553Z,100076.09
2022-09-28T00:24:15.872Z,100077.16
2022-09-28T00:26:49.371Z,100073.28
2022-09-28T00:29:21.159Z,100081.75
2022-09-28T00:31:52.652Z,100065.16
2022-09-28T00:34:22.100Z,100073.88
2022-09-28T00:36:50.720Z,100074.16
2022-09-28T00:39:19.779Z,100075.72
2022-09-28T00:41:49.804Z,100071.25
2022-09-28T00:44:44.061Z,100069.88
2022-09-28T00:47:33.594Z,100071.34
2022-09-28T00:50:05.090Z,100068.78
2022-09-28T00:52:37.555Z,100068.31
2022-09-28T00:55:10.093Z,100069.75
2022-09-28T00:57:43.988Z,100070.38
2022-09-28T01:00:14.768Z,100077.28
2022-09-28T01:02:44.357Z,100081.91
2022-09-28T01:05:14.323Z,100074.13
2022-09-28T01:07:45.253Z,100079.34
2022-09-28T01:10:14.682Z,100071.44
2022-09-28T01:12:44.613Z,100078.16
2022-09-28T01:15:14.950Z,100071.09
2022-09-28T01:17:59.328Z,100073.66
2022-09-28T01:20:52.849Z,100071.72
2022-09-28T01:23:55.898Z,100066.38
2022-09-28T01:26:47.075Z,100071.47
2022-09-28T01:29:23.810Z,100077.78
2022-09-28T01:32:02.805Z,100075.06
2022-09-28T01:34:39.113Z,100078.44
2022-09-28T01:37:12.731Z,100069.34
2022-09-28T01:39:45.584Z,100063.78
2022-09-28T01:42:21.344Z,100079.50
2022-09-28T01:44:53.467Z,100073.91
2022-09-28T01:47:25.395Z,100075.16
2022-09-28T01:50:00.685Z,100078.75
2022-09-28T01:52:35.309Z,100079.13
2022-09-28T01:55:11.105Z,100079.66
2022-09-28T01:57:46.968Z,100078.44
2022-09-28T02:00:19.697Z,100081.78
2022-09-28T02:02:56.469Z,100083.41
2022-09-28T02:05:38.128Z,100079.09
2022-09-28T02:08:10.819Z,100079.03
2022-09-28T02:10:43.907Z,100066.41
2022-09-28T02:13:18.586Z,100073.19
2022-09-28T02:15:53.261Z,100075.69
2022-09-28T02:18:21.849Z,100067.66
2022-09-28T02:20:58.147Z,100069.00
2022-09-28T02:23:30.245Z,100070.72
2022-09-28T02:26:03.406Z,100071.63
2022-09-28T02:28:34.436Z,100062.56
2022-09-28T02:31:03.454Z,100052.81
2022-09-28T02:33:37.340Z,100050.16
2022-09-28T02:36:06.493Z,100050.78
2022-09-28T02:38:39.872Z,100054.59
2022-09-28T02:41:20.540Z,100046.16
2022-09-28T02:44:00.981Z,100047.22
2022-09-28T02:46:35.749Z,100048.81
2022-09-28T02:49:23.488Z,100043.94
2022-09-28T02:52:16.716Z,100051.00
2022-09-28T02:55:08.268Z,100051.66
2022-09-28T02:57:48.384Z,100048.50
2022-09-28T03:00:21.459Z,100047.81
2022-09-28T03:03:00.640Z,100039.28
2022-09-28T03:05:39.517Z,100049.25
2022-09-28T03:08:15.766Z,100042.91
2022-09-28T03:10:51.100Z,100044.03
2022-09-28T03:13:20.225Z,100037.88
2022-09-28T03:15:50.503Z,100026.69
2022-09-28T03:18:20.238Z,100018.69
2022-09-28T03:20:49.922Z,100023.84
2022-09-28T03:23:25.852Z,100029.72
2022-09-28T03:25:55.061Z,100022.31
2022-09-28T03:28:24.145Z,100020.00
2022-09-28T03:30:54.535Z,100014.69
2022-09-28T03:33:23.723Z,100017.53
2022-09-28T03:35:53.562Z,100020.81
2022-09-28T03:38:23.145Z,100021.69
2022-09-28T03:40:55.946Z,100016.69
2022-09-28T03:43:29.445Z,100017.03
2022-09-28T03:46:03.586Z,100017.81
2022-09-28T03:48:37.305Z,100019.06
2022-09-28T03:51:09.486Z,100016.72
2022-09-28T03:53:38.682Z,100014.63
2022-09-28T03:56:10.228Z,100007.69
2022-09-28T03:58:38.941Z,100011.38
2022-09-28T04:01:16.475Z,100002.91
2022-09-28T04:03:47.981Z,99996.44
2022-09-28T04:06:16.608Z,99993.59
2022-09-28T04:08:45.380Z,99998.63
2022-09-28T04:11:14.128Z,99995.59
2022-09-28T04:13:42.963Z,100005.53
2022-09-28T04:16:18.041Z,100008.59
2022-09-28T04:18:58.167Z,99995.81
2022-09-28T04:21:45.621Z,99998.69
2022-09-28T04:24:16.329Z,99989.25
2022-09-28T04:26:45.140Z,99991.41
2022-09-28T04:29:16.686Z,99993.53
2022-09-28T04:31:57.309Z,99988.84
2022-09-28T04:34:43.712Z,99988.75
2022-09-28T04:37:13.304Z,99990.13
2022-09-28T04:39:45.127Z,99972.94
2022-09-28T04:42:19.234Z,99985.88
2022-09-28T04:44:50.462Z,99977.09
2022-09-28T04:47:20.669Z,99977.25
2022-09-28T04:50:01.429Z,99971.75
2022-09-28T04:52:33.766Z,99975.66
2022-09-28T04:55:02.885Z,99967.59
2022-09-28T04:57:32.161Z,99962.75
2022-09-28T05:00:01.168Z,99967.50
2022-09-28T05:02:32.766Z,99976.91
2022-09-28T05:05:20.929Z,99968.59
2022-09-28T05:08:06.198Z,99969.09
2022-09-28T05:10:35.082Z,99966.16
2022-09-28T05:13:04.044Z,99959.69
2022-09-28T05:15:32.881Z,99965.53
2022-09-28T05:18:05.584Z,99962.13
2022-09-28T05:20:55.981Z,99965.47
2022-09-28T05:23:24.803Z,99960.38
2022-09-28T05:26:02.713Z,99965.03
2022-09-28T05:28:34.265Z,99966.59
2022-09-28T05:31:21.850Z,99958.59
2022-09-28T05:34:15.291Z,99957.38
2022-09-28T05:36:46.011Z,99965.03
2022-09-28T05:39:14.836Z,99975.59
2022-09-28T05:41:43.661Z,99971.53
2022-09-28T05:44:12.847Z,99976.59
2022-09-28T05:46:41.638Z,99969.22
2022-09-28T05:49:11.974Z,99976.63
2022-09-28T05:51:42.292Z,99979.19
2022-09-28T05:54:11.466Z,99973.72
2022-09-28T05:56:43.525Z,99977.22
2022-09-28T05:59:13.646Z,99977.00
2022-09-28T06:01:43.219Z,99975.69
2022-09-28T06:04:13.130Z,99971.53
2022-09-28T06:06:45.545Z,99973.97
2022-09-28T06:09:14.508Z,99970.94
2022-09-28T06:12:09.580Z,99970.22
2022-09-28T06:14:48.961Z,99968.25
2022-09-28T06:17:17.761Z,99970.78
2022-09-28T06:19:53.480Z,99978.16
2022-09-28T06:22:29.213Z,99966.84
2022-09-28T06:25:05.671Z,99966.13
2022-09-28T06:27:36.199Z,99971.44
2022-09-28T06:30:06.059Z,99968.97
2022-09-28T06:32:34.611Z,99970.69
2022-09-28T06:35:03.454Z,99970.44
2022-09-28T06:37:33.727Z,99974.31
2022-09-28T06:40:03.969Z,99968.97
2022-09-28T06:42:32.928Z,99970.53
2022-09-28T06:45:32.492Z,99972.72
2022-09-28T06:48:25.995Z,99961.88
2022-09-28T06:50:55.271Z,99967.56
2022-09-28T06:53:36.046Z,99972.31
2022-09-28T06:56:33.074Z,99974.84
2022-09-28T06:59:02.191Z,99976.94
2022-09-28T07:01:31.070Z,99983.63
2022-09-28T07:04:07.883Z,99978.03
2022-09-28T07:06:57.407Z,99963.50
2022-09-28T07:09:51.235Z,99970.16
2022-09-28T07:12:40.146Z,99964.16
2022-09-28T07:15:33.804Z,99969.09
2022-09-28T07:18:04.443Z,99965.13
2022-09-28T07:20:45.576Z,99955.31
2022-09-28T07:23:20.088Z,99963.06
2022-09-28T07:26:09.418Z,99959.31
2022-09-28T07:28:56.847Z,99960.63
2022-09-28T07:31:51.566Z,99965.09
2022-09-28T07:34:43.953Z,99955.03
2022-09-28T07:37:23.784Z,99955.31
2022-09-28T07:40:09.871Z,99955.03
2022-09-28T07:42:41.873Z,99964.75
2022-09-28T07:45:12.692Z,99961.84
2022-09-28T07:47:41.634Z,99960.72
2022-09-28T07:50:29.167Z,99960.31
2022-09-28T07:53:02.726Z,99962.47
2022-09-28T07:55:57.243Z,99957.50
2022-09-28T07:58:48.990Z,99952.75
2022-09-28T08:01:43.748Z,99941.81
2022-09-28T08:04:15.481Z,99951.97
2022-09-28T08:06:45.981Z,99945.75
2022-09-28T08:09:15.521Z,99944.63
2022-09-28T08:12:04.345Z,99944.06
2022-09-28T08:14:57.124Z,99941.50
2022-09-28T08:17:37.204Z,99944.47
2022-09-28T08:20:27.484Z,99937.44
2022-09-28T08:22:57.147Z,99945.91
2022-09-28T08:25:26.180Z,99941.69
2022-09-28T08:27:56.483Z,99935.59
2022-09-28T08:30:27.960Z,99933.63
2022-09-28T08:33:15.787Z,99928.53
2022-09-28T08:35:45.005Z,99922.13
2022-09-28T08:38:25.674Z,99923.84
2022-09-28T08:41:20.591Z,99930.44
2022-09-28T08:44:25.182Z,99925.09
2022-09-28T08:47:33.725Z,99917.88
2022-09-28T08:50:27.403Z,99928.34
2022-09-28T08:53:15.192Z,99916.59
2022-09-28T08:56:07.785Z,99915.31
2022-09-28T08:58:41.166Z,99911.91
2022-09-28T09:01:16.864Z,99915.19
2022-09-28T09:03:50.457Z,99912.91
2022-09-28T09:07:31.307Z,99899.59
2022-09-28T09:10:20.164Z,99900.16
2022-09-28T09:13:03.769Z,99893.88
2022-09-28T09:15:48.444Z,99899.44
2022-09-28T09:18:34.423Z,99898.06
2022-09-28T09:21:37.710Z,99895.91
2022-09-28T09:24:19.887Z,99882.53
2022-09-28T09:26:55.963Z,99888.94
2022-09-28T09:29:33.647Z,99890.66
2022-09-28T09:32:16.549Z,99883.31
2022-09-28T09:35:06.443Z,99867.50
2022-09-28T09:38:23.680Z,99873.53
2022-09-28T09:41:23.265Z,99872.34
2022-09-28T09:44:41.741Z,99873.19
2022-09-28T09:47:36.060Z,99865.19
2022-09-28T09:50:30.214Z,99860.19
2022-09-28T09:53:04.883Z,99863.34
2022-09-28T09:55:42.263Z,99861.22
2022-09-28T09:58:35.762Z,99852.88
2022-09-28T10:01:21.470Z,99850.94
2022-09-28T10:04:34.060Z,99853.06
2022-09-28T10:07:21.508Z,99850.31
2022-09-28T10:09:52.280Z,99850.47
2022-09-28T10:12:36.285Z,99841.19
2022-09-28T10:15:08.120Z,99839.69
2022-09-28T10:17:49.260Z,99842.41
2022-09-28T10:20:50.525Z,99838.03
2022-09-28T10:23:31.450Z,99837.72
2022-09-28T10:26:07.425Z,99839.56
2022-09-28T10:28:44.365Z,99836.22
2022-09-28T10:31:35.631Z,99839.25
2022-09-28T10:34:06.147Z,99829.28
2022-09-28T10:36:44.043Z,99826.56
2022-09-28T10:39:27.444Z,99829.56
2022-09-28T10:41:56.643Z,99829.56
2022-09-28T10:44:31.784Z,99825.84
2022-09-28T10:47:10.109Z,99822.38
2022-09-28T10:49:47.076Z,99829.78
2022-09-28T10:52:41.971Z,99822.38
2022-09-28T10:55:30.947Z,99822.19
2022-09-28T10:58:00.649Z,99825.91
2022-09-28T11:00:43.827Z,99820.19
2022-09-28T11:03:31.765Z,99814.44
2022-09-28T11:06:08.667Z,99806.75
2022-09-28T11:08:46.025Z,99811.81
2022-09-28T11:11:20.923Z,99809.28
2022-09-28T11:14:00.766Z,99804.66
2022-09-28T11:16:36.405Z,99808.03
2022-09-28T11:19:26.466Z,99805.78
2022-09-28T11:21:55.921Z,99799.34
2022-09-28T11:24:33.184Z,99806.34
2022-09-28T11:27:06.008Z,99798.81
2022-09-28T11:29:39.990Z,99805.38
2022-09-28T11:32:41.103Z,99793.31
2022-09-28T11:35:44.446Z,99786.28
2022-09-28T11:38:27.245Z,99791.97
2022-09-28T11:41:38.926Z,99789.63
2022-09-28T11:44:30.947Z,99788.38
2022-09-28T11:47:38.931Z,99792.97
2022-09-28T11:50:24.820Z,99786.16
2022-09-28T11:53:03.043Z,99774.38
2022-09-28T11:55:37.664Z,99773.06
2022-09-28T11:58:12.648Z,99774.72
2022-09-28T12:00:49.406Z,99770.56
2022-09-28T12:03:27.429Z,99769.38
2022-09-28T12:06:02.319Z,99764.00
2022-09-28T12:08:35.747Z,99766.16
2022-09-28T12:11:32.642Z,99763.50
2022-09-28T12:14:26.599Z,99761.13
2022-09-28T12:17:06.700Z,99761.25
2022-09-28T12:19:40.399Z,99759.63
2022-09-28T12:22:19.741Z,99751.72
2022-09-28T12:24:51.120Z,99746.91
2022-09-28T12:27:26.381Z,99740.69
2022-09-28T12:30:00.521Z,99738.50
2022-09-28T12:32:37.642Z,99743.44
2022-09-28T12:35:14.092Z,99745.38
2022-09-28T12:38:10.431Z,99743.75
2022-09-28T12:40:47.392Z,99739.06
2022-09-28T12:44:06.401Z,99729.97
2022-09-28T12:46:55.483Z,99732.38
2022-09-28T12:50:36.189Z,99741.13
2022-09-28T12:52:43.752Z,99736.47
2022-09-28T12:55:21.141Z,99736.22
2022-09-28T12:58:00.560Z,99735.38
2022-09-28T13:00:37.139Z,99733.50
2022-09-28T13:03:47.204Z,99733.34
2022-09-28T13:06:39.799Z,99734.88
2022-09-28T13:09:31.583Z,99732.03
2022-09-28T13:12:24.643Z,99735.88
2022-09-28T13:15:21.089Z,99734.38
2022-09-28T13:17:56.692Z,99731.16
2022-09-28T13:20:37.174Z,99736.03
2022-09-28T13:23:15.902Z,99728.44
2022-09-28T13:25:51.154Z,99724.25
2022-09-28T13:28:27.050Z,99728.63
2022-09-28T13:33:37.070Z,99721.00
2022-09-28T13:36:26.711Z,99721.22
2022-09-28T13:38:56.134Z,99721.72
2022-09-28T13:41:32.010Z,99716.53
2022-09-28T13:44:18.136Z,99713.00
2022-09-28T13:46:59.007Z,99710.13
2022-09-28T13:49:37.951Z,99718.91
2022-09-28T13:52:11.049Z,99718.25
2022-09-28T13:54:55.835Z,99715.03
2022-09-28T13:57:29.675Z,99712.03
2022-09-28T14:00:16.929Z,99708.28
2022-09-28T14:02:49.522Z,99710.97
2022-09-28T14:05:42.267Z,99718.44
2022-09-28T14:08:28.246Z,99712.69
2022-09-28T14:10:57.891Z,99720.09
2022-09-28T14:13:59.822Z,99711.84
2022-09-28T14:16:32.556Z,99712.53
2022-09-28T14:19:07.448Z,99716.56
2022-09-28T14:21:54.322Z,99711.38
2022-09-28T14:24:34.964Z,99719.97
2022-09-28T14:27:30.194Z,99714.75
2022-09-28T14:30:09.453Z,99710.53
2022-09-28T14:32:41.613Z,99713.75
2022-09-28T14:35:19.086Z,99714.91
2022-09-28T14:38:19.885Z,99710.00
2022-09-28T14:41:12.970Z,99704.13
2022-09-28T14:44:03.885Z,99703.66
2022-09-28T14:46:38.236Z,99705.47
2022-09-28T14:49:51.522Z,99703.13
2022-09-28T14:52:40.643Z,99705.81
2022-09-28T14:55:17.265Z,99704.63
2022-09-28T14:57:52.803Z,99709.00
2022-09-28T15:00:23.575Z,99707.66
2022-09-28T15:02:54.206Z,99706.97
2022-09-28T15:05:29.874Z,99708.50
2022-09-28T15:07:58.612Z,99706.72
2022-09-28T15:10:32.520Z,99719.00
2022-09-28T15:13:02.845Z,99707.00
2022-09-28T15:15:37.337Z,99717.69
2022-09-28T15:18:49.334Z,99721.16
2022-09-28T15:21:20.821Z,99707.84
2022-09-28T15:23:50.727Z,99709.00
2022-09-28T15:26:25.347Z,99708.41
2022-09-28T15:28:54.138Z,99715.88
2022-09-28T15:31:25.727Z,99713.97
2022-09-28T15:34:12.604Z,99707.28
2022-09-28T15:36:46.603Z,99700.50
2022-09-28T15:39:19.167Z,99709.34
2022-09-28T15:41:51.472Z,99712.06
2022-09-28T15:44:32.523Z,99708.69
2022-09-28T15:47:13.225Z,99706.00
2022-09-28T15:49:47.089Z,99706.97
2022-09-28T15:52:30.415Z,99713.88
2022-09-28T15:55:03.163Z,99716.41
2022-09-28T15:57:40.359Z,99717.38
2022-09-28T16:00:26.751Z,99719.44
2022-09-28T16:03:01.898Z,99713.72
2022-09-28T16:05:36.191Z,99725.09
2022-09-28T16:08:07.235Z,99723.81
2022-09-28T16:10:36.263Z,99725.09
2022-09-28T16:13:18.043Z,99723.84
2022-09-28T16:15:47.166Z,99717.19
2022-09-28T16:18:23.705Z,99716.88
2022-09-28T16:20:53.797Z,99718.97
2022-09-28T16:23:28.507Z,99724.31
2022-09-28T16:26:00.726Z,99724.69
2022-09-28T16:28:52.113Z,99731.19
2022-09-28T16:31:37.096Z,99729.72
2022-09-28T16:34:21.293Z,99729.41
2022-09-28T16:36:51.040Z,99730.47
2022-09-28T16:39:22.728Z,99720.41
2022-09-28T16:41:55.853Z,99712.59
2022-09-28T16:44:28.686Z,99725.16
2022-09-28T16:47:00.409Z,99708.00
2022-09-28T16:49:29.813Z,99712.84
2022-09-28T16:51:58.331Z,99712.16
2022-09-28T16:54:45.846Z,99717.69
2022-09-28T16:57:16.472Z,99707.84
2022-09-28T16:59:45.120Z,99707.50
2022-09-28T17:02:42.151Z,99714.72
2022-09-28T17:05:08.193Z,99713.69
2022-09-28T17:07:36.803Z,99714.00
2022-09-28T17:10:16.747Z,99713.47
2022-09-28T17:12:45.366Z,99723.47
2022-09-28T17:15:19.726Z,99717.66
2022-09-28T17:17:48.801Z,99717.59
2022-09-28T17:20:23.309Z,99716.94
2022-09-28T17:22:53.350Z,99706.91
2022-09-28T17:25:25.347Z,99713.03
2022-09-28T17:27:56.809Z,99705.63
2022-09-28T17:30:25.988Z,99706.06
2022-09-28T17:32:54.707Z,99702.44
2022-09-28T17:35:25.102Z,99703.28
2022-09-28T17:37:54.193Z,99700.88
2022-09-28T17:40:28.647Z,99702.44
2022-09-28T17:42:57.986Z,99708.41
2022-09-28T17:45:28.887Z,99701.28
2022-09-28T17:47:59.289Z,99701.59
2022-09-28T17:50:32.668Z,99701.28
2022-09-28T17:53:06.066Z,99701.03
2022-09-28T17:55:37.826Z,99709.78
2022-09-28T17:58:17.530Z,99715.72
2022-09-28T18:00:47.926Z,99710.19
2022-09-28T18:03:20.009Z,99711.56
2022-09-28T18:05:51.087Z,99711.28
2022-09-28T18:08:20.107Z,99707.19
2022-09-28T18:10:51.666Z,99708.56
2022-09-28T18:13:20.348Z,99711.25
2022-09-28T18:15:52.109Z,99714.88
2022-09-28T18:18:20.668Z,99708.94
2022-09-28T18:20:49.047Z,99702.91
2022-09-28T18:23:17.545Z,99701.28
2022-09-28T18:25:47.335Z,99695.50
2022-09-28T18:28:17.125Z,99708.63
2022-09-28T18:30:46.943Z,99701.03
2022-09-28T18:33:15.880Z,99700.03
2022-09-28T18:35:52.708Z,99696.66
2022-09-28T18:38:23.245Z,99684.56
2022-09-28T18:40:53.081Z,99680.94
2022-09-28T18:43:23.051Z,99685.16
2022-09-28T18:45:51.770Z,99688.25
2022-09-28T18:48:20.227Z,99687.84
2022-09-28T18:50:48.903Z,99687.53
2022-09-28T18:53:17.920Z,99686.41
2022-09-28T18:55:46.378Z,99687.13
2022-09-28T18:58:15.160Z,99686.94
2022-09-28T19:00:45.664Z,99686.94
2022-09-28T19:03:14.559Z,99686.94
2022-09-28T19:05:43.823Z,99689.50
2022-09-28T19:08:12.499Z,99688.06
2022-09-28T19:10:41.023Z,99689.91
2022-09-28T19:13:10.043Z,99688.47
2022-09-28T19:15:38.761Z,99688.47
2022-09-28T19:18:09.868Z,99680.56
2022-09-28T19:20:38.237Z,99683.78
2022-09-28T19:23:06.782Z,99684.88
2022-09-28T19:25:36.599Z,99687.56
2022-09-28T19:28:05.181Z,99683.03
2022-09-28T19:30:35.025Z,99680.94
2022-09-28T19:33:03.684Z,99686.16
2022-09-28T19:35:33.689Z,99675.53
2022-09-28T19:38:02.239Z,99681.09
2022-09-28T19:40:30.830Z,99679.25
2022-09-28T19:43:00.015Z,99678.00
2022-09-28T19:45:29.419Z,99684.03
2022-09-28T19:47:59.552Z,99676.22
2022-09-28T19:50:28.777Z,99677.81
2022-09-28T19:53:01.980Z,99670.38
2022-09-28T19:55:32.062Z,99673.72
2022-09-28T19:58:01.999Z,99668.41
2022-09-28T20:00:30.677Z,99677.31
2022-09-28T20:03:00.198Z,99672.63
2022-09-28T20:05:29.457Z,99673.16
2022-09-28T20:07:59.557Z,99678.81
2022-09-28T20:10:28.062Z,99674.84
2022-09-28T20:12:56.646Z,99673.47
2022-09-28T20:15:25.404Z,99672.53
2022-09-28T20:17:54.327Z,99675.94
2022-09-28T20:20:23.022Z,99678.41
2022-09-28T20:22:52.482Z,99666.06
2022-09-28T20:25:22.448Z,99664.94
2022-09-28T20:27:51.184Z,99669.09
2022-09-28T20:30:20.526Z,99665.19
2022-09-28T20:32:49.750Z,99674.97
2022-09-28T20:35:30.299Z,99663.09
2022-09-28T20:38:08.152Z,99673.63
2022-09-28T20:40:38.736Z,99677.22
2022-09-28T20:43:07.402Z,99670.72
2022-09-28T20:45:37.243Z,99674.31
2022-09-28T20:48:06.725Z,99673.69
2022-09-28T20:50:35.578Z,99670.41
2022-09-28T20:53:04.102Z,99676.09
2022-09-28T20:55:32.622Z,99673.50
2022-09-28T20:58:05.344Z,99664.59
2022-09-28T21:00:34.714Z,99667.97
2022-09-28T21:03:03.368Z,99666.81
2022-09-28T21:05:32.167Z,99666.88
2022-09-28T21:08:00.837Z,99670.03
2022-09-28T21:10:30.541Z,99663.75
2022-09-28T21:12:59.025Z,99678.69
2022-09-28T21:15:29.067Z,99667.81
2022-09-28T21:17:57.616Z,99672.97
2022-09-28T21:20:26.222Z,99670.03
2022-09-28T21:22:54.768Z,99673.94
2022-09-28T21:25:23.439Z,99665.66
2022-09-28T21:27:51.924Z,99672.25
2022-09-28T21:30:20.546Z,99666.03
2022-09-28T21:32:52.499Z,99662.22
2022-09-28T21:35:21.102Z,99666.88
2022-09-28T21:37:49.925Z,99656.69
2022-09-28T21:40:20.171Z,99658.75
2022-09-28T21:42:48.865Z,99660.59
2022-09-28T21:45:17.616Z,99658.38
2022-09-28T21:47:52.919Z,99658.75
2022-09-28T21:50:24.341Z,99664.41
2022-09-28T21:52:54.340Z,99659.59
2022-09-28T21:55:25.299Z,99662.97
2022-09-28T21:57:53.599Z,99667.97
2022-09-28T22:00:23.858Z,99660.88
2022-09-28T22:02:52.862Z,99658.84
2022-09-28T22:05:22.902Z,99664.34
2022-09-28T22:07:51.658Z,99663.22
2022-09-28T22:10:20.305Z,99668.25
2022-09-28T22:12:50.297Z,99661.00
2022-09-28T22:15:18.855Z,99660.03
2022-09-28T22:17:47.363Z,99652.16
2022-09-28T22:20:15.997Z,99658.91
2022-09-28T22:22:50.141Z,99646.88
2022-09-28T22:25:18.808Z,99646.41
2022-09-28T22:27:47.351Z,99642.28
2022-09-28T22:30:15.946Z,99643.88
2022-09-28T22:32:44.372Z,99641.81
2022-09-28T22:35:12.931Z,99636.91
2022-09-28T22:37:41.379Z,99636.69
2022-09-28T22:40:14.048Z,99646.88
2022-09-28T22:42:43.057Z,99630.03
2022-09-28T22:45:11.909Z,99631.16
2022-09-28T22:47:40.463Z,99623.88
2022-09-28T22:50:09.549Z,99633.00
2022-09-28T22:52:38.107Z,99626.88
2022-09-28T22:55:07.405Z,99627.66
2022-09-28T22:57:37.308Z,99634.00
2022-09-28T23:00:06.704Z,99632.50
2022-09-28T23:02:35.140Z,99632.38
2022-09-28T23:05:03.569Z,99634.78
2022-09-28T23:07:32.199Z,99626.56
2022-09-28T23:10:00.787Z,99628.09
2022-09-28T23:12:30.649Z,99631.38
2022-09-28T23:15:00.680Z,99618.53
2022-09-28T23:17:29.126Z,99630.44
2022-09-28T23:19:57.688Z,99626.06
2022-09-28T23:22:26.110Z,99626.41
2022-09-28T23:24:54.688Z,99632.06
2022-09-28T23:27:23.174Z,99634.44
2022-09-28T23:29:53.979Z,99632.00
2022-09-28T23:32:26.546Z,99627.06
2022-09-28T23:34:57.171Z,99631.72
2022-09-28T23:37:25.700Z,99622.81
2022-09-28T23:39:54.480Z,99627.66
2022-09-28T23:42:22.970Z,99624.94
2022-09-28T23:44:51.429Z,99628.94
2022-09-28T23:47:19.843Z,99631.31
2022-09-28T23:49:49.762Z,99621.34
2022-09-28T23:52:18.357Z,99627.34
2022-09-28T23:54:46.899Z,99621.34
2022-09-28T23:57:15.329Z,99615.84
2022-09-28T23:59:43.794Z,99613.50
